Jhelum Weather



Jhelum's Current Weather

Temprature 41.15o clear sky

clear sky

Rain: 0 %

Min Temprature41.15o
Max Temprature41.15o
Humidity25
Wind Speed1.03 m/h
Sun Rise05:12:57
Sun Set19:09:55
Current Time: 24-Jul-2021 16:25:42
Lat/Lon: 32.9331, 73.7264




Jhelum's Geo Location



Jhelum's Weather Forecast

Time Overall Temp Min Temp Max Temp Humidity Wind Speed Rain
24-Jul-2021 (Sat)
17:00:00 clear sky 41.150 41.150 41.150 25 0.93 m/h 0 %
20:00:00 clear sky 40.180 38.240 40.180 27 2.11 m/h 0 %
23:00:00 clear sky 38.280 36.850 38.280 31 1.27 m/h 0 %
25-Jul-2021 (Sun)
02:00:00 few clouds 34.210 34.210 34.210 45 3.31 m/h 0 %
05:00:00 scattered clouds 32.960 32.960 32.960 53 2.58 m/h 0 %
08:00:00 broken clouds 35.870 35.870 35.870 46 4.12 m/h 0 %
11:00:00 broken clouds 39.750 39.750 39.750 33 2.66 m/h 0 %
14:00:00 few clouds 42.170 42.170 42.170 25 2.16 m/h 0 %
17:00:00 scattered clouds 42.500 42.500 42.500 24 0.72 m/h 0 %
20:00:00 broken clouds 37.340 37.340 37.340 41 7.29 m/h 0 %
23:00:00 broken clouds 35.030 35.030 35.030 54 6.09 m/h 0 %
26-Jul-2021 (Mon)
02:00:00 overcast clouds 32.940 32.940 32.940 61 5.87 m/h 0 %
05:00:00 overcast clouds 31.700 31.700 31.700 65 5.18 m/h 0 %
08:00:00 overcast clouds 33.620 33.620 33.620 59 6.38 m/h 0 %
11:00:00 overcast clouds 38.000 38.000 38.000 45 4.76 m/h 0 %
14:00:00 scattered clouds 40.880 40.880 40.880 35 3.23 m/h 0 %
17:00:00 scattered clouds 41.320 41.320 41.320 32 2.96 m/h 0 %
20:00:00 overcast clouds 34.610 34.610 34.610 56 7.75 m/h 0 %
23:00:00 light rain 31.930 31.930 31.930 69 7.91 m/h 13 %
27-Jul-2021 (Tue)
02:00:00 light rain 29.680 29.680 29.680 78 7.01 m/h 116 %
05:00:00 overcast clouds 28.890 28.890 28.890 81 5.76 m/h 0 %
08:00:00 overcast clouds 29.990 29.990 29.990 75 5.68 m/h 0 %
11:00:00 broken clouds 35.200 35.200 35.200 54 5.18 m/h 0 %
14:00:00 broken clouds 37.140 37.140 37.140 46 5.56 m/h 0 %
17:00:00 light rain 34.830 34.830 34.830 55 7.78 m/h 30 %
20:00:00 light rain 29.560 29.560 29.560 76 8.96 m/h 65 %
23:00:00 moderate rain 28.330 28.330 28.330 81 7.68 m/h 329 %
28-Jul-2021 (Wed)
02:00:00 light rain 27.320 27.320 27.320 83 6.5 m/h 16 %
05:00:00 moderate rain 26.740 26.740 26.740 86 4.38 m/h 323 %
08:00:00 light rain 26.440 26.440 26.440 88 3.84 m/h 241 %
11:00:00 light rain 27.430 27.430 27.430 85 4.86 m/h 274 %
14:00:00 moderate rain 27.010 27.010 27.010 87 5.03 m/h 347 %
17:00:00 light rain 26.810 26.810 26.810 86 4.4 m/h 189 %
20:00:00 light rain 26.850 26.850 26.850 86 2.03 m/h 44 %
23:00:00 overcast clouds 26.690 26.690 26.690 86 1.49 m/h 0 %
29-Jul-2021 (Thu)
02:00:00 light rain 25.830 25.830 25.830 90 1.51 m/h 72 %
05:00:00 light rain 25.460 25.460 25.460 91 1.04 m/h 112 %
08:00:00 scattered clouds 28.140 28.140 28.140 76 1.55 m/h 0 %
11:00:00 scattered clouds 32.140 32.140 32.140 60 1.46 m/h 0 %
14:00:00 overcast clouds 34.840 34.840 34.840 50 1.49 m/h 0 %

Famous Cities (60)